Time,TemperatureF,DewpointF,PressureIn,WindDirection,WindDirectionDegrees,WindSpeedMPH,WindSpeedGustMPH,Humidity,HourlyPrecipIn,Conditions,Clouds,dailyrainin,SoftwareType,DateUTC
2013-01-28 00:03:00,14.4,1.2,30.47,West,274,0.0,2.0,55,0.00,SCT,,0.00,WeatherDisplay:10.37,2013-01-28 05:03:00,
2013-01-28 00:13:00,14.7,1.0,30.47,West,273,0.0,1.0,54,0.00,SCT,,0.00,WeatherDisplay:10.37,2013-01-28 05:13:00,
2013-01-28 00:23:00,14.5,0.5,30.46,WNW,285,0.0,1.0,53,0.00,SCT,,0.00,WeatherDisplay:10.37,2013-01-28 05:23:00,
2013-01-28 00:33:00,14.2,1.0,30.46,West,272,0.0,1.0,55,0.00,SCT,,0.00,WeatherDisplay:10.37,2013-01-28 05:33:00,
2013-01-28 00:43:00,14.2,0.2,30.45,West,276,0.0,1.0,53,0.00,SCT,,0.00,WeatherDisplay:10.37,2013-01-28 05:43:00,
2013-01-28 00:53:00,14.8,0.8,30.45,West,280,1.0,3.0,53,0.00,SCT,,0.00,WeatherDisplay:10.37,2013-01-28 05:53:00,
2013-01-28 01:03:00,16.2,0.4,30.45,West,270,2.0,4.0,49,0.00,SCT,,0.00,WeatherDisplay:10.37,2013-01-28 06:03:00,
2013-01-28 01:13:00,16.6,0.3,30.45,West,259,1.0,4.0,48,0.00,OVC,,0.00,WeatherDisplay:10.37,2013-01-28 06:13:00,
2013-01-28 01:23:00,16.5,0.6,30.45,West,276,1.0,4.0,49,0.00,OVC,,0.00,WeatherDisplay:10.37,2013-01-28 06:23:00,
2013-01-28 01:33:00,16.1,0.7,30.45,West,264,2.0,5.0,50,0.00,OVC,,0.00,WeatherDisplay:10.37,2013-01-28 06:33:00,
2013-01-28 01:43:00,16.4,0.5,30.45,West,273,2.0,6.0,49,0.00,OVC,,0.00,WeatherDisplay:10.37,2013-01-28 06:43:00,
2013-01-28 01:53:00,16.5,0.2,30.46,West,277,2.0,5.0,48,0.00,OVC,,0.00,WeatherDisplay:10.37,2013-01-28 06:53:00,
2013-01-28 02:03:00,16.5,0.2,30.46,West,264,3.0,5.0,48,0.00,OVC,,0.00,WeatherDisplay:10.37,2013-01-28 07:03:00,
2013-01-28 02:13:00,16.4,0.1,30.46,WSW,256,3.0,5.0,48,0.00,FEW,,0.00,WeatherDisplay:10.37,2013-01-28 07:13:00,
2013-01-28 02:23:00,16.3,0.0,30.47,West,263,1.0,5.0,48,0.00,FEW,,0.00,WeatherDisplay:10.37,2013-01-28 07:23:00,
2013-01-28 02:33:00,16.3,0.0,30.46,West,266,1.0,4.0,48,0.00,FEW,,0.00,WeatherDisplay:10.37,2013-01-28 07:33:00,
2013-01-28 02:43:00,16.3,-0.4,30.45,WNW,298,2.0,6.0,47,0.00,FEW,,0.00,WeatherDisplay:10.37,2013-01-28 07:43:00,
2013-01-28 02:53:00,16.6,-0.6,30.45,WNW,284,2.0,7.0,46,0.00,FEW,,0.00,WeatherDisplay:10.37,2013-01-28 07:53:00,
2013-01-28 03:03:00,16.8,-0.4,30.45,WNW,282,3.0,5.0,46,0.00,FEW,,0.00,WeatherDisplay:10.37,2013-01-28 08:03:00,
2013-01-28 03:13:00,16.8,0.0,30.45,WNW,298,1.0,6.0,47,0.00,BKN,,0.00,WeatherDisplay:10.37,2013-01-28 08:13:00,
2013-01-28 03:23:00,16.6,-0.6,30.44,NW,323,1.0,3.0,46,0.00,BKN,,0.00,WeatherDisplay:10.37,2013-01-28 08:23:00,
2013-01-28 03:33:00,16.6,0.3,30.44,West,268,0.0,3.0,48,0.00,BKN,,0.00,WeatherDisplay:10.37,2013-01-28 08:33:00,
2013-01-28 03:43:00,16.2,1.2,30.43,West,260,1.0,2.0,51,0.00,BKN,,0.00,WeatherDisplay:10.37,2013-01-28 08:43:00,
2013-01-28 03:53:00,16.1,0.3,30.43,West,264,0.0,2.0,49,0.00,BKN,,0.00,WeatherDisplay:10.37,2013-01-28 08:53:00,
2013-01-28 04:03:00,16.0,1.0,30.43,West,261,0.0,1.0,51,0.00,BKN,,0.00,WeatherDisplay:10.37,2013-01-28 09:03:00,
2013-01-28 04:13:00,15.7,0.3,30.43,West,262,1.0,2.0,50,0.00,BKN,,0.00,WeatherDisplay:10.37,2013-01-28 09:13:00,
2013-01-28 04:23:00,15.8,1.3,30.43,West,270,2.0,3.0,52,0.00,BKN,,0.00,WeatherDisplay:10.37,2013-01-28 09:23:00,
2013-01-28 04:33:00,16.3,0.5,30.42,WNW,291,2.0,4.0,49,0.00,BKN,,0.00,WeatherDisplay:10.37,2013-01-28 09:33:00,
2013-01-28 04:43:00,16.6,0.3,30.42,NW,305,3.0,7.0,48,0.00,BKN,,0.00,WeatherDisplay:10.37,2013-01-28 09:43:00,
2013-01-28 04:53:00,16.6,0.7,30.42,WNW,288,3.0,5.0,49,0.00,BKN,,0.00,WeatherDisplay:10.37,2013-01-28 09:53:00,
2013-01-28 05:03:00,16.5,1.1,30.42,West,275,1.0,5.0,50,0.00,BKN,,0.00,WeatherDisplay:10.37,2013-01-28 10:03:00,
2013-01-28 05:13:00,16.4,1.8,30.43,WNW,283,1.0,3.0,52,0.00,CLR,,0.00,WeatherDisplay:10.37,2013-01-28 10:13:00,
2013-01-28 05:23:00,16.6,1.1,30.43,West,277,1.0,4.0,50,0.00,CLR,,0.00,WeatherDisplay:10.37,2013-01-28 10:23:00,
2013-01-28 05:33:00,16.8,1.8,30.43,West,272,1.0,3.0,51,0.00,CLR,,0.00,WeatherDisplay:10.37,2013-01-28 10:33:00,
2013-01-28 05:43:00,16.9,1.5,30.42,West,280,1.0,2.0,50,0.00,CLR,,0.00,WeatherDisplay:10.37,2013-01-28 10:43:00,
2013-01-28 05:53:00,17.2,3.4,30.42,West,277,1.0,2.0,54,0.00,CLR,,0.00,WeatherDisplay:10.37,2013-01-28 10:53:00,
2013-01-28 06:03:00,17.2,3.0,30.42,West,281,1.0,2.0,53,0.00,CLR,,0.00,WeatherDisplay:10.37,2013-01-28 11:03:00,
2013-01-28 06:13:00,17.2,3.0,30.42,WNW,295,1.0,3.0,53,0.00,OVC,,0.00,WeatherDisplay:10.37,2013-01-28 11:13:00,
2013-01-28 06:23:00,17.4,3.2,30.41,WNW,287,1.0,2.0,53,0.00,OVC,,0.00,WeatherDisplay:10.37,2013-01-28 11:23:00,
2013-01-28 06:33:00,17.6,4.2,30.41,West,269,2.0,4.0,55,0.00,OVC,,0.00,WeatherDisplay:10.37,2013-01-28 11:33:00,
2013-01-28 06:43:00,17.6,3.8,30.41,West,273,3.0,5.0,54,0.00,OVC,,0.00,WeatherDisplay:10.37,2013-01-28 11:43:00,
2013-01-28 06:53:00,17.7,3.4,30.42,West,265,3.0,7.0,53,0.00,OVC,,0.00,WeatherDisplay:10.37,2013-01-28 11:53:00,
2013-01-28 07:03:00,17.9,4.4,30.42,West,271,3.0,6.0,55,0.00,OVC,,0.00,WeatherDisplay:10.37,2013-01-28 12:03:00,
2013-01-28 07:13:00,17.9,4.0,30.41,West,277,3.0,6.0,54,0.00,OVC,,0.00,WeatherDisplay:10.37,2013-01-28 12:13:00,
2013-01-28 07:23:00,18.0,4.1,30.41,West,277,2.0,6.0,54,0.00,OVC,,0.00,WeatherDisplay:10.37,2013-01-28 12:23:00,
2013-01-28 07:33:00,18.2,4.3,30.41,West,281,2.0,5.0,54,0.00,OVC,,0.00,WeatherDisplay:10.37,2013-01-28 12:33:00,
2013-01-28 07:43:00,18.3,4.0,30.41,WNW,290,3.0,6.0,53,0.00,OVC,,0.00,WeatherDisplay:10.37,2013-01-28 12:43:00,
2013-01-28 07:53:00,18.5,4.6,30.41,WNW,288,2.0,7.0,54,0.00,OVC,,0.00,WeatherDisplay:10.37,2013-01-28 12:53:00,
2013-01-28 08:03:00,18.8,4.5,30.41,West,278,2.0,6.0,53,0.00,OVC,,0.00,WeatherDisplay:10.37,2013-01-28 13:03:00,
2013-01-28 08:13:00,19.1,4.8,30.41,WNW,289,3.0,7.0,53,0.00,OVC,,0.00,WeatherDisplay:10.37,2013-01-28 13:13:00,
2013-01-28 08:23:00,19.3,4.9,30.41,West,279,2.0,6.0,53,0.00,OVC,,0.00,WeatherDisplay:10.37,2013-01-28 13:23:00,
2013-01-28 08:33:00,19.8,5.8,30.41,West,273,2.0,5.0,54,0.00,OVC,,0.00,WeatherDisplay:10.37,2013-01-28 13:33:00,
2013-01-28 08:43:00,20.1,6.1,30.40,West,270,2.0,4.0,54,0.00,OVC,,0.00,WeatherDisplay:10.37,2013-01-28 13:43:00,
2013-01-28 08:53:00,20.3,6.3,30.40,West,265,1.0,5.0,54,0.00,OVC,,0.00,WeatherDisplay:10.37,2013-01-28 13:53:00,
2013-01-28 09:03:00,20.7,5.8,30.40,West,274,2.0,6.0,52,0.00,OVC,,0.00,WeatherDisplay:10.37,2013-01-28 14:03:00,
2013-01-28 09:13:00,21.2,6.7,30.40,WNW,298,1.0,3.0,53,0.00,OVC,,0.00,WeatherDisplay:10.37,2013-01-28 14:13:00,
2013-01-28 09:23:00,21.6,6.7,30.39,West,264,1.0,3.0,52,0.00,OVC,,0.00,WeatherDisplay:10.37,2013-01-28 14:23:00,
2013-01-28 09:33:00,22.1,7.1,30.39,West,268,1.0,3.0,52,0.00,OVC,,0.00,WeatherDisplay:10.37,2013-01-28 14:33:00,
2013-01-28 09:43:00,22.4,7.0,30.39,West,280,1.0,3.0,51,0.00,OVC,,0.00,WeatherDisplay:10.37,2013-01-28 14:43:00,
2013-01-28 09:53:00,22.7,6.4,30.39,West,276,1.0,2.0,49,0.00,OVC,,0.00,WeatherDisplay:10.37,2013-01-28 14:53:00,
2013-01-28 10:03:00,23.4,7.9,30.39,West,274,1.0,2.0,51,0.00,OVC,,0.00,WeatherDisplay:10.37,2013-01-28 15:03:00,
2013-01-28 10:13:00,23.5,7.6,30.39,West,270,1.0,2.0,50,0.00,OVC,,0.00,WeatherDisplay:10.37,2013-01-28 15:13:00,
2013-01-28 10:23:00,23.9,7.0,30.38,West,275,0.0,1.0,48,0.00,OVC,,0.00,WeatherDisplay:10.37,2013-01-28 15:23:00,
2013-01-28 10:33:00,24.5,8.5,30.38,South,190,1.0,3.0,50,0.00,OVC,,0.00,WeatherDisplay:10.37,2013-01-28 15:33:00,
2013-01-28 10:43:00,24.9,8.9,30.37,SSW,202,2.0,5.0,50,0.00,OVC,,0.00,WeatherDisplay:10.37,2013-01-28 15:43:00,
2013-01-28 10:53:00,25.2,8.2,30.36,SW,215,1.0,4.0,48,0.00,OVC,,0.00,WeatherDisplay:10.37,2013-01-28 15:53:00,
2013-01-28 11:03:00,25.5,7.6,30.36,SSW,206,1.0,5.0,46,0.00,OVC,,0.00,WeatherDisplay:10.37,2013-01-28 16:03:00,
2013-01-28 11:13:00,25.5,7.1,30.35,SSW,198,1.0,4.0,45,0.00,OVC,,0.00,WeatherDisplay:10.37,2013-01-28 16:13:00,
2013-01-28 11:23:00,26.1,8.1,30.35,SW,224,1.0,3.0,46,0.00,OVC,,0.00,WeatherDisplay:10.37,2013-01-28 16:23:00,
2013-01-28 11:33:00,26.7,7.2,30.35,SW,224,2.0,5.0,43,0.00,OVC,,0.00,WeatherDisplay:10.37,2013-01-28 16:33:00,
2013-01-28 11:43:00,26.7,7.2,30.33,SW,225,1.0,6.0,43,0.00,OVC,,0.00,WeatherDisplay:10.37,2013-01-28 16:43:00,
2013-01-28 11:53:00,26.7,7.7,30.32,SW,230,1.0,5.0,44,0.00,OVC,,0.00,WeatherDisplay:10.37,2013-01-28 16:53:00,
2013-01-28 12:03:00,26.7,8.2,30.32,SW,230,1.0,4.0,45,0.00,OVC,,0.00,WeatherDisplay:10.37,2013-01-28 17:03:00,
2013-01-28 12:13:00,26.4,8.4,30.31,West,271,1.0,3.0,46,0.00,OVC,,0.00,WeatherDisplay:10.37,2013-01-28 17:13:00,
2013-01-28 12:23:00,26.7,8.2,30.31,WSW,239,1.0,5.0,45,0.00,OVC,,0.00,WeatherDisplay:10.37,2013-01-28 17:23:00,
2013-01-28 12:33:00,26.4,10.7,30.30,West,265,1.0,12.0,51,0.00,OVC,,0.00,WeatherDisplay:10.37,2013-01-28 17:33:00,
2013-01-28 12:43:00,26.0,12.4,30.29,West,263,1.0,6.0,56,0.00,OVC,,0.00,WeatherDisplay:10.37,2013-01-28 17:43:00,
2013-01-28 12:53:00,25.7,13.7,30.28,WSW,250,1.0,6.0,60,0.00,OVC,,0.00,WeatherDisplay:10.37,2013-01-28 17:53:00,
2013-01-28 13:03:00,24.8,16.1,30.28,West,276,2.0,7.0,69,0.00,OVC,,0.00,WeatherDisplay:10.37,2013-01-28 18:03:00,
2013-01-28 13:13:00,24.2,16.8,30.27,SW,223,2.0,6.0,73,0.00,-SN,,0.00,WeatherDisplay:10.37,2013-01-28 18:13:00,
2013-01-28 13:23:00,24.5,18.6,30.26,SSW,201,1.0,5.0,78,0.00,-SN,,0.00,WeatherDisplay:10.37,2013-01-28 18:23:00,
2013-01-28 13:33:00,24.5,19.2,30.25,SSW,194,1.0,6.0,80,0.00,-SN,,0.00,WeatherDisplay:10.37,2013-01-28 18:33:00,
2013-01-28 13:43:00,24.2,19.2,30.24,South,191,1.0,4.0,81,0.00,-SN,,0.00,WeatherDisplay:10.37,2013-01-28 18:43:00,
2013-01-28 13:53:00,24.1,19.7,30.23,SSE,160,2.0,5.0,83,0.00,-SN,,0.00,WeatherDisplay:10.37,2013-01-28 18:53:00,
2013-01-28 14:03:00,23.8,19.4,30.23,SSE,155,1.0,4.0,83,0.00,-SN,,0.00,WeatherDisplay:10.37,2013-01-28 19:03:00,
2013-01-28 14:13:00,23.8,19.7,30.22,South,172,2.0,5.0,84,0.00,-SN,,0.00,WeatherDisplay:10.37,2013-01-28 19:13:00,
2013-01-28 14:23:00,23.8,19.9,30.20,SSE,162,1.0,5.0,85,0.00,-SN,,0.00,WeatherDisplay:10.37,2013-01-28 19:23:00,
2013-01-28 14:33:00,23.6,20.0,30.20,SSE,154,1.0,5.0,86,0.00,-SN,,0.00,WeatherDisplay:10.37,2013-01-28 19:33:00,
2013-01-28 14:43:00,23.5,20.2,30.19,SE,140,3.0,5.0,87,0.00,-SN,,0.00,WeatherDisplay:10.37,2013-01-28 19:43:00,
2013-01-28 14:53:00,23.3,20.3,30.17,SE,139,1.0,7.0,88,0.00,-SN,,0.00,WeatherDisplay:10.37,2013-01-28 19:53:00,
2013-01-28 15:03:00,23.3,20.5,30.17,SE,136,2.0,6.0,89,0.00,-SN,,0.00,WeatherDisplay:10.37,2013-01-28 20:03:00,
2013-01-28 15:13:00,23.5,20.7,30.17,SE,134,3.0,6.0,89,0.00,-SN,,0.00,WeatherDisplay:10.37,2013-01-28 20:13:00,
2013-01-28 15:23:00,23.8,21.0,30.15,SE,131,2.0,7.0,89,0.00,-SN,,0.00,WeatherDisplay:10.37,2013-01-28 20:23:00,
2013-01-28 15:33:00,23.8,21.0,30.15,SE,134,2.0,4.0,89,0.00,-SN,,0.00,WeatherDisplay:10.37,2013-01-28 20:33:00,
2013-01-28 15:43:00,23.8,21.0,30.15,SE,144,1.0,4.0,89,0.00,-SN,,0.00,WeatherDisplay:10.37,2013-01-28 20:43:00,
2013-01-28 15:53:00,23.8,21.0,30.15,SE,129,0.0,3.0,89,0.00,-SN,,0.00,WeatherDisplay:10.37,2013-01-28 20:53:00,
2013-01-28 16:03:00,23.6,21.1,30.15,ESE,108,2.0,4.0,90,0.00,-SN,,0.00,WeatherDisplay:10.37,2013-01-28 21:03:00,
2013-01-28 16:13:00,23.6,21.1,30.16,East,94,1.0,4.0,90,0.00,-SN,,0.00,WeatherDisplay:10.37,2013-01-28 21:13:00,
2013-01-28 16:23:00,23.5,21.3,30.15,ESE,109,1.0,3.0,91,0.00,-SN,,0.00,WeatherDisplay:10.37,2013-01-28 21:23:00,
2013-01-28 16:33:00,23.5,21.3,30.15,ESE,107,1.0,4.0,91,0.00,-SN,,0.00,WeatherDisplay:10.37,2013-01-28 21:33:00,
2013-01-28 16:43:00,23.5,21.5,30.15,SE,130,1.0,5.0,92,0.00,-SN,,0.00,WeatherDisplay:10.37,2013-01-28 21:43:00,
2013-01-28 16:53:00,23.5,21.5,30.13,ESE,112,1.0,3.0,92,0.00,-SN,,0.00,WeatherDisplay:10.37,2013-01-28 21:53:00,
2013-01-28 17:03:00,23.5,21.8,30.13,ESE,110,0.0,2.0,93,0.00,,,0.00,WeatherDisplay:10.37,2013-01-28 22:03:00,
2013-01-28 17:13:00,23.5,21.8,30.13,ESE,112,0.0,3.0,93,0.00,-SN,,0.00,WeatherDisplay:10.37,2013-01-28 22:13:00,
2013-01-28 17:23:00,23.5,22.0,30.13,East,94,1.0,3.0,94,0.00,-SN,,0.00,WeatherDisplay:10.37,2013-01-28 22:23:00,
2013-01-28 17:33:00,23.6,22.1,30.13,East,99,1.0,3.0,94,0.00,-SN,,0.00,WeatherDisplay:10.37,2013-01-28 22:33:00,
2013-01-28 17:43:00,23.5,22.0,30.11,SE,130,0.0,3.0,94,0.00,-SN,,0.00,WeatherDisplay:10.37,2013-01-28 22:43:00,
2013-01-28 17:53:00,23.8,22.3,30.11,SE,128,1.0,2.0,94,0.00,-SN,,0.00,WeatherDisplay:10.37,2013-01-28 22:53:00,
2013-01-28 18:03:00,23.5,22.0,30.11,ESE,107,1.0,3.0,94,0.00,-SN,,0.00,WeatherDisplay:10.37,2013-01-28 23:03:00,
2013-01-28 18:13:00,23.5,22.1,30.09,East,98,2.0,3.0,94,0.00,-SN,,0.00,WeatherDisplay:10.37,2013-01-28 23:13:00,
2013-01-28 18:23:00,23.5,22.0,30.10,East,100,0.0,3.0,94,0.00,-SN,,0.00,WeatherDisplay:10.37,2013-01-28 23:23:00,
2013-01-28 18:33:00,23.5,22.0,30.10,ESE,116,1.0,3.0,94,0.00,OVC,,0.00,WeatherDisplay:10.37,2013-01-28 23:33:00,
2013-01-28 18:43:00,23.5,22.0,30.10,ESE,112,0.0,3.0,94,0.00,OVC,,0.00,WeatherDisplay:10.37,2013-01-28 23:43:00,
2013-01-28 18:53:00,23.5,22.0,30.08,ESE,112,2.0,4.0,94,0.00,OVC,,0.00,WeatherDisplay:10.37,2013-01-28 23:53:00,
2013-01-28 19:03:00,23.5,22.0,30.08,ESE,123,1.0,6.0,94,0.00,OVC,,0.00,WeatherDisplay:10.37,2013-01-29 00:03:00,
2013-01-28 19:13:00,23.5,22.0,30.08,ESE,117,2.0,4.0,94,0.00,OVC,,0.00,WeatherDisplay:10.37,2013-01-29 00:13:00,
2013-01-28 19:23:00,23.5,22.0,30.10,ESE,105,1.0,2.0,94,0.00,OVC,,0.00,WeatherDisplay:10.37,2013-01-29 00:23:00,
2013-01-28 19:33:00,23.5,22.0,30.09,East,100,1.0,3.0,94,0.00,OVC,,0.00,WeatherDisplay:10.37,2013-01-29 00:33:00,
2013-01-28 19:43:00,23.5,22.0,30.07,ESE,106,1.0,3.0,94,0.00,OVC,,0.00,WeatherDisplay:10.37,2013-01-29 00:43:00,
2013-01-28 19:53:00,23.5,22.0,30.09,ENE,66,1.0,4.0,94,0.00,OVC,,0.00,WeatherDisplay:10.37,2013-01-29 00:53:00,
2013-01-28 20:03:00,23.5,22.3,30.08,East,87,3.0,5.0,95,0.00,OVC,,0.00,WeatherDisplay:10.37,2013-01-29 01:03:00,
2013-01-28 20:13:00,23.6,22.4,30.07,East,90,2.0,4.0,95,0.00,OVC,,0.00,WeatherDisplay:10.37,2013-01-29 01:13:00,
2013-01-28 20:23:00,23.9,22.7,30.07,East,97,2.0,5.0,95,0.00,OVC,,0.00,WeatherDisplay:10.37,2013-01-29 01:23:00,
2013-01-28 20:33:00,23.7,22.5,30.07,ENE,78,2.0,6.0,95,0.00,OVC,,0.00,WeatherDisplay:10.37,2013-01-29 01:33:00,
2013-01-28 20:43:00,23.6,22.4,30.07,East,83,2.0,4.0,95,0.00,OVC,,0.00,WeatherDisplay:10.37,2013-01-29 01:43:00,
2013-01-28 20:53:00,23.7,22.5,30.05,East,89,2.0,5.0,95,0.00,OVC,,0.00,WeatherDisplay:10.37,2013-01-29 01:53:00,
2013-01-28 21:03:00,23.6,22.4,30.05,ESE,102,1.0,5.0,95,0.00,,,0.00,WeatherDisplay:10.37,2013-01-29 02:03:00,
2013-01-28 21:13:00,23.9,22.9,30.05,ESE,112,2.0,4.0,96,0.00,,,0.00,WeatherDisplay:10.37,2013-01-29 02:13:00,
2013-01-28 21:23:00,23.8,22.8,30.04,East,90,0.0,3.0,96,0.00,,,0.00,WeatherDisplay:10.37,2013-01-29 02:23:00,
2013-01-28 21:33:00,23.8,22.8,30.04,East,90,1.0,3.0,96,0.00,,,0.00,WeatherDisplay:10.37,2013-01-29 02:33:00,
2013-01-28 21:43:00,23.8,22.8,30.04,ENE,77,1.0,4.0,96,0.00,,,0.00,WeatherDisplay:10.37,2013-01-29 02:43:00,
2013-01-28 21:53:00,23.9,22.9,30.03,East,96,1.0,3.0,96,0.00,,,0.00,WeatherDisplay:10.37,2013-01-29 02:53:00,
2013-01-28 22:03:00,23.9,22.9,30.03,East,80,2.0,4.0,96,0.00,,,0.00,WeatherDisplay:10.37,2013-01-29 03:03:00,
2013-01-28 22:13:00,23.8,22.8,30.02,East,79,2.0,5.0,96,0.00,,,0.00,WeatherDisplay:10.37,2013-01-29 03:13:00,
2013-01-28 22:23:00,23.8,22.8,30.03,ENE,70,2.0,4.0,96,0.00,,,0.00,WeatherDisplay:10.37,2013-01-29 03:23:00,
2013-01-28 22:33:00,23.9,22.9,30.03,ENE,76,2.0,4.0,96,0.00,,,0.00,WeatherDisplay:10.37,2013-01-29 03:33:00,
2013-01-28 22:43:00,23.9,22.9,30.03,East,89,2.0,4.0,96,0.00,,,0.00,WeatherDisplay:10.37,2013-01-29 03:43:00,
2013-01-28 22:53:00,23.9,22.9,30.02,ESE,102,1.0,4.0,96,0.00,,,0.00,WeatherDisplay:10.37,2013-01-29 03:53:00,
2013-01-28 23:13:00,24.2,23.2,30.03,East,86,1.0,3.0,96,0.00,,,0.00,WeatherDisplay:10.37,2013-01-29 04:13:00,
2013-01-28 23:23:00,24.2,23.2,30.03,ESE,111,2.0,3.0,96,0.00,,,0.00,WeatherDisplay:10.37,2013-01-29 04:23:00,
2013-01-28 23:33:00,24.2,23.2,30.03,East,97,1.0,3.0,96,0.00,,,0.00,WeatherDisplay:10.37,2013-01-29 04:33:00,
2013-01-28 23:43:00,24.2,23.5,30.02,ESE,103,2.0,4.0,97,0.00,,,0.00,WeatherDisplay:10.37,2013-01-29 04:43:00,
2013-01-28 23:53:00,24.4,23.7,30.02,ESE,104,1.0,3.0,97,0.00,,,0.00,WeatherDisplay:10.37,2013-01-29 04:53:00,